sensor_id;sensor_type;location;lat;lon;timestamp;temperature;humidity
30371;DHT22;17164;48.590;11.410;2022-09-02T00:01:50;14.10;99.90
30371;DHT22;17164;48.590;11.410;2022-09-02T00:04:21;14.10;99.90
30371;DHT22;17164;48.590;11.410;2022-09-02T00:06:49;14.10;99.90
30371;DHT22;17164;48.590;11.410;2022-09-02T00:09:17;14.00;99.90
30371;DHT22;17164;48.590;11.410;2022-09-02T00:11:44;14.00;99.90
30371;DHT22;17164;48.590;11.410;2022-09-02T00:14:14;14.00;99.90
30371;DHT22;17164;48.590;11.410;2022-09-02T00:16:40;13.90;99.90
30371;DHT22;17164;48.590;11.410;2022-09-02T00:19:07;13.90;99.90
30371;DHT22;17164;48.590;11.410;2022-09-02T00:21:34;13.80;99.90
30371;DHT22;17164;48.590;11.410;2022-09-02T00:24:02;13.80;99.90
30371;DHT22;17164;48.590;11.410;2022-09-02T00:26:28;13.70;99.90
30371;DHT22;17164;48.590;11.410;2022-09-02T00:28:54;13.70;99.90
30371;DHT22;17164;48.590;11.410;2022-09-02T00:31:19;13.60;99.90
30371;DHT22;17164;48.590;11.410;2022-09-02T00:33:45;13.60;99.90
30371;DHT22;17164;48.590;11.410;2022-09-02T00:36:11;13.50;99.90
30371;DHT22;17164;48.590;11.410;2022-09-02T00:38:37;13.40;99.90
30371;DHT22;17164;48.590;11.410;2022-09-02T00:41:06;13.40;99.90
30371;DHT22;17164;48.590;11.410;2022-09-02T00:43:52;13.30;99.90
30371;DHT22;17164;48.590;11.410;2022-09-02T00:46:21;13.30;99.90
30371;DHT22;17164;48.590;11.410;2022-09-02T00:51:21;13.20;99.90
30371;DHT22;17164;48.590;11.410;2022-09-02T00:53:48;13.20;99.90
30371;DHT22;17164;48.590;11.410;2022-09-02T00:56:20;13.10;99.90
30371;DHT22;17164;48.590;11.410;2022-09-02T00:58:48;13.00;99.90
30371;DHT22;17164;48.590;11.410;2022-09-02T01:01:14;12.90;99.90
30371;DHT22;17164;48.590;11.410;2022-09-02T01:03:40;12.90;99.90
30371;DHT22;17164;48.590;11.410;2022-09-02T01:06:08;12.90;99.90
30371;DHT22;17164;48.590;11.410;2022-09-02T01:08:35;12.80;99.90
30371;DHT22;17164;48.590;11.410;2022-09-02T01:11:03;12.70;99.90
30371;DHT22;17164;48.590;11.410;2022-09-02T01:13:36;12.70;99.90
30371;DHT22;17164;48.590;11.410;2022-09-02T01:16:40;12.70;99.90
30371;DHT22;17164;48.590;11.410;2022-09-02T01:18:59;12.60;99.90
30371;DHT22;17164;48.590;11.410;2022-09-02T01:21:26;12.60;99.90
30371;DHT22;17164;48.590;11.410;2022-09-02T01:23:52;12.50;99.90
30371;DHT22;17164;48.590;11.410;2022-09-02T01:26:18;12.50;99.90
30371;DHT22;17164;48.590;11.410;2022-09-02T01:28:44;12.50;99.90
30371;DHT22;17164;48.590;11.410;2022-09-02T01:31:10;12.50;99.90
30371;DHT22;17164;48.590;11.410;2022-09-02T01:33:36;12.50;99.90
30371;DHT22;17164;48.590;11.410;2022-09-02T01:36:02;12.40;99.90
30371;DHT22;17164;48.590;11.410;2022-09-02T01:38:29;12.40;99.90
30371;DHT22;17164;48.590;11.410;2022-09-02T01:40:55;12.40;99.90
30371;DHT22;17164;48.590;11.410;2022-09-02T01:43:24;12.40;99.90
30371;DHT22;17164;48.590;11.410;2022-09-02T01:45:53;12.40;99.90
30371;DHT22;17164;48.590;11.410;2022-09-02T01:48:20;12.30;99.90
30371;DHT22;17164;48.590;11.410;2022-09-02T01:50:49;12.30;99.90
30371;DHT22;17164;48.590;11.410;2022-09-02T01:53:16;12.30;99.90
30371;DHT22;17164;48.590;11.410;2022-09-02T01:55:42;12.30;99.90
30371;DHT22;17164;48.590;11.410;2022-09-02T01:58:07;12.20;99.90
30371;DHT22;17164;48.590;11.410;2022-09-02T02:00:33;12.20;99.90
30371;DHT22;17164;48.590;11.410;2022-09-02T02:02:59;12.20;99.90
30371;DHT22;17164;48.590;11.410;2022-09-02T02:05:25;12.20;99.90
30371;DHT22;17164;48.590;11.410;2022-09-02T02:07:50;12.10;99.90
30371;DHT22;17164;48.590;11.410;2022-09-02T02:10:18;12.10;99.90
30371;DHT22;17164;48.590;11.410;2022-09-02T02:12:45;12.10;99.90
30371;DHT22;17164;48.590;11.410;2022-09-02T02:15:14;12.00;99.90
30371;DHT22;17164;48.590;11.410;2022-09-02T02:17:41;11.90;99.90
30371;DHT22;17164;48.590;11.410;2022-09-02T02:20:09;11.90;99.90
30371;DHT22;17164;48.590;11.410;2022-09-02T02:22:35;11.80;99.90
30371;DHT22;17164;48.590;11.410;2022-09-02T02:25:03;11.80;99.90
30371;DHT22;17164;48.590;11.410;2022-09-02T02:27:29;11.80;99.90
30371;DHT22;17164;48.590;11.410;2022-09-02T02:29:54;11.80;99.90
30371;DHT22;17164;48.590;11.410;2022-09-02T02:32:20;11.80;99.90
30371;DHT22;17164;48.590;11.410;2022-09-02T02:34:46;11.80;99.90
30371;DHT22;17164;48.590;11.410;2022-09-02T02:37:12;11.70;99.90
30371;DHT22;17164;48.590;11.410;2022-09-02T02:39:39;11.70;99.90
30371;DHT22;17164;48.590;11.410;2022-09-02T02:42:06;11.70;99.90
30371;DHT22;17164;48.590;11.410;2022-09-02T02:44:32;11.60;99.90
30371;DHT22;17164;48.590;11.410;2022-09-02T02:46:58;11.60;99.90
30371;DHT22;17164;48.590;11.410;2022-09-02T02:49:24;11.60;99.90
30371;DHT22;17164;48.590;11.410;2022-09-02T02:51:52;11.60;99.90
30371;DHT22;17164;48.590;11.410;2022-09-02T02:54:19;11.60;99.90
30371;DHT22;17164;48.590;11.410;2022-09-02T02:56:44;11.60;99.90
30371;DHT22;17164;48.590;11.410;2022-09-02T02:59:10;11.50;99.90
30371;DHT22;17164;48.590;11.410;2022-09-02T03:01:36;11.50;99.90
30371;DHT22;17164;48.590;11.410;2022-09-02T03:04:03;11.40;99.90
30371;DHT22;17164;48.590;11.410;2022-09-02T03:06:29;11.40;99.90
30371;DHT22;17164;48.590;11.410;2022-09-02T03:08:54;11.40;99.90
30371;DHT22;17164;48.590;11.410;2022-09-02T03:11:22;11.40;99.90
30371;DHT22;17164;48.590;11.410;2022-09-02T03:13:51;11.30;99.90
30371;DHT22;17164;48.590;11.410;2022-09-02T03:16:17;11.40;99.90
30371;DHT22;17164;48.590;11.410;2022-09-02T03:18:45;11.40;99.90
30371;DHT22;17164;48.590;11.410;2022-09-02T03:21:11;11.30;99.90
30371;DHT22;17164;48.590;11.410;2022-09-02T03:23:40;11.40;99.90
30371;DHT22;17164;48.590;11.410;2022-09-02T03:26:11;11.30;99.90
30371;DHT22;17164;48.590;11.410;2022-09-02T03:28:37;11.30;99.90
30371;DHT22;17164;48.590;11.410;2022-09-02T03:31:04;11.30;99.90
30371;DHT22;17164;48.590;11.410;2022-09-02T03:33:29;11.20;99.90
30371;DHT22;17164;48.590;11.410;2022-09-02T03:35:55;11.20;99.90
30371;DHT22;17164;48.590;11.410;2022-09-02T03:38:21;11.20;99.90
30371;DHT22;17164;48.590;11.410;2022-09-02T03:40:46;11.20;99.90
30371;DHT22;17164;48.590;11.410;2022-09-02T03:43:12;11.20;99.90
30371;DHT22;17164;48.590;11.410;2022-09-02T03:45:39;11.20;99.90
30371;DHT22;17164;48.590;11.410;2022-09-02T03:48:07;11.20;99.90
30371;DHT22;17164;48.590;11.410;2022-09-02T03:50:35;11.20;99.90
30371;DHT22;17164;48.590;11.410;2022-09-02T03:53:04;11.20;99.90
30371;DHT22;17164;48.590;11.410;2022-09-02T03:55:30;11.20;99.90
30371;DHT22;17164;48.590;11.410;2022-09-02T03:57:56;11.20;99.90
30371;DHT22;17164;48.590;11.410;2022-09-02T04:00:24;11.20;99.90
30371;DHT22;17164;48.590;11.410;2022-09-02T04:02:53;11.20;99.90
30371;DHT22;17164;48.590;11.410;2022-09-02T04:05:20;11.10;99.90
30371;DHT22;17164;48.590;11.410;2022-09-02T04:07:47;11.10;99.90
30371;DHT22;17164;48.590;11.410;2022-09-02T04:10:15;11.20;99.90
30371;DHT22;17164;48.590;11.410;2022-09-02T04:12:41;11.20;99.90
30371;DHT22;17164;48.590;11.410;2022-09-02T04:15:08;11.20;99.90
30371;DHT22;17164;48.590;11.410;2022-09-02T04:17:36;11.10;99.90
30371;DHT22;17164;48.590;11.410;2022-09-02T04:20:04;11.10;99.90
30371;DHT22;17164;48.590;11.410;2022-09-02T04:22:31;11.00;99.90
30371;DHT22;17164;48.590;11.410;2022-09-02T04:24:56;11.00;99.90
30371;DHT22;17164;48.590;11.410;2022-09-02T04:27:22;11.00;99.90
30371;DHT22;17164;48.590;11.410;2022-09-02T04:29:48;11.00;99.90
30371;DHT22;17164;48.590;11.410;2022-09-02T04:32:14;10.90;99.90
30371;DHT22;17164;48.590;11.410;2022-09-02T04:34:39;10.90;99.90
30371;DHT22;17164;48.590;11.410;2022-09-02T04:37:05;10.90;99.90
30371;DHT22;17164;48.590;11.410;2022-09-02T04:39:31;10.90;99.90
30371;DHT22;17164;48.590;11.410;2022-09-02T04:41:57;10.90;99.90
30371;DHT22;17164;48.590;11.410;2022-09-02T04:44:23;10.80;99.90
30371;DHT22;17164;48.590;11.410;2022-09-02T04:46:49;10.80;99.90
30371;DHT22;17164;48.590;11.410;2022-09-02T04:49:15;10.80;99.90
30371;DHT22;17164;48.590;11.410;2022-09-02T04:51:41;10.80;99.90
30371;DHT22;17164;48.590;11.410;2022-09-02T04:54:07;10.80;99.90
30371;DHT22;17164;48.590;11.410;2022-09-02T04:56:33;10.80;99.90
30371;DHT22;17164;48.590;11.410;2022-09-02T04:58:58;10.80;99.90
30371;DHT22;17164;48.590;11.410;2022-09-02T05:01:27;10.80;99.90
30371;DHT22;17164;48.590;11.410;2022-09-02T05:03:53;10.80;99.90
30371;DHT22;17164;48.590;11.410;2022-09-02T05:06:23;10.80;99.90
30371;DHT22;17164;48.590;11.410;2022-09-02T05:08:52;10.80;99.90
30371;DHT22;17164;48.590;11.410;2022-09-02T05:11:21;10.80;99.90
30371;DHT22;17164;48.590;11.410;2022-09-02T05:13:49;10.80;99.90
30371;DHT22;17164;48.590;11.410;2022-09-02T05:16:21;10.90;99.90
30371;DHT22;17164;48.590;11.410;2022-09-02T05:18:48;10.90;99.90
30371;DHT22;17164;48.590;11.410;2022-09-02T05:21:14;11.00;99.90
30371;DHT22;17164;48.590;11.410;2022-09-02T05:23:40;11.00;99.90
30371;DHT22;17164;48.590;11.410;2022-09-02T05:26:06;11.10;99.90
30371;DHT22;17164;48.590;11.410;2022-09-02T05:28:33;11.20;99.90
30371;DHT22;17164;48.590;11.410;2022-09-02T05:31:08;11.30;99.90
30371;DHT22;17164;48.590;11.410;2022-09-02T05:33:35;11.40;99.90
30371;DHT22;17164;48.590;11.410;2022-09-02T05:36:04;11.50;99.90
30371;DHT22;17164;48.590;11.410;2022-09-02T05:38:30;11.50;99.90
30371;DHT22;17164;48.590;11.410;2022-09-02T05:40:56;11.60;99.90
30371;DHT22;17164;48.590;11.410;2022-09-02T05:43:24;11.70;99.90
30371;DHT22;17164;48.590;11.410;2022-09-02T05:45:49;11.80;99.90
30371;DHT22;17164;48.590;11.410;2022-09-02T05:48:15;11.80;99.90
30371;DHT22;17164;48.590;11.410;2022-09-02T05:51:03;11.90;99.90
30371;DHT22;17164;48.590;11.410;2022-09-02T05:53:30;11.90;99.90
30371;DHT22;17164;48.590;11.410;2022-09-02T05:55:56;12.00;99.90
30371;DHT22;17164;48.590;11.410;2022-09-02T05:58:21;12.10;99.90
30371;DHT22;17164;48.590;11.410;2022-09-02T06:00:47;12.10;99.90
30371;DHT22;17164;48.590;11.410;2022-09-02T06:03:13;12.20;99.90
30371;DHT22;17164;48.590;11.410;2022-09-02T06:05:39;12.20;99.90
30371;DHT22;17164;48.590;11.410;2022-09-02T06:08:06;12.30;99.90
30371;DHT22;17164;48.590;11.410;2022-09-02T06:10:32;12.30;99.90
30371;DHT22;17164;48.590;11.410;2022-09-02T06:12:58;12.40;99.90
30371;DHT22;17164;48.590;11.410;2022-09-02T06:15:24;12.40;99.90
30371;DHT22;17164;48.590;11.410;2022-09-02T06:17:52;12.40;99.90
30371;DHT22;17164;48.590;11.410;2022-09-02T06:20:18;12.50;99.90
30371;DHT22;17164;48.590;11.410;2022-09-02T06:22:43;12.50;99.90
30371;DHT22;17164;48.590;11.410;2022-09-02T06:25:09;12.60;99.90
30371;DHT22;17164;48.590;11.410;2022-09-02T06:27:36;12.60;99.90
30371;DHT22;17164;48.590;11.410;2022-09-02T06:30:02;12.70;99.90
30371;DHT22;17164;48.590;11.410;2022-09-02T06:32:28;12.80;99.90
30371;DHT22;17164;48.590;11.410;2022-09-02T06:34:54;12.90;99.90
30371;DHT22;17164;48.590;11.410;2022-09-02T06:37:19;13.00;99.90
30371;DHT22;17164;48.590;11.410;2022-09-02T06:39:45;13.10;99.90
30371;DHT22;17164;48.590;11.410;2022-09-02T06:42:12;13.20;99.90
30371;DHT22;17164;48.590;11.410;2022-09-02T06:44:38;13.30;99.90
30371;DHT22;17164;48.590;11.410;2022-09-02T06:47:03;13.40;99.90
30371;DHT22;17164;48.590;11.410;2022-09-02T06:49:29;13.40;99.90
30371;DHT22;17164;48.590;11.410;2022-09-02T06:51:55;13.50;99.90
30371;DHT22;17164;48.590;11.410;2022-09-02T06:54:22;13.60;99.90
30371;DHT22;17164;48.590;11.410;2022-09-02T06:56:49;13.70;99.90
30371;DHT22;17164;48.590;11.410;2022-09-02T06:59:17;13.80;99.90
30371;DHT22;17164;48.590;11.410;2022-09-02T07:01:43;13.90;99.90
30371;DHT22;17164;48.590;11.410;2022-09-02T07:04:09;13.90;99.90
30371;DHT22;17164;48.590;11.410;2022-09-02T07:06:54;14.10;99.90
30371;DHT22;17164;48.590;11.410;2022-09-02T07:09:23;14.10;99.90
30371;DHT22;17164;48.590;11.410;2022-09-02T07:11:55;14.30;99.90
30371;DHT22;17164;48.590;11.410;2022-09-02T07:14:21;14.40;99.90
30371;DHT22;17164;48.590;11.410;2022-09-02T07:16:50;14.50;99.90
30371;DHT22;17164;48.590;11.410;2022-09-02T07:19:17;14.70;99.90
30371;DHT22;17164;48.590;11.410;2022-09-02T07:21:42;14.70;99.90
30371;DHT22;17164;48.590;11.410;2022-09-02T07:24:10;14.90;99.90
30371;DHT22;17164;48.590;11.410;2022-09-02T07:26:36;15.00;99.90
30371;DHT22;17164;48.590;11.410;2022-09-02T07:29:03;15.20;99.90
30371;DHT22;17164;48.590;11.410;2022-09-02T07:31:29;15.30;99.90
30371;DHT22;17164;48.590;11.410;2022-09-02T07:33:55;15.40;99.90
30371;DHT22;17164;48.590;11.410;2022-09-02T07:36:24;15.50;99.90
30371;DHT22;17164;48.590;11.410;2022-09-02T07:38:51;15.60;99.90
30371;DHT22;17164;48.590;11.410;2022-09-02T07:41:18;15.80;99.90
30371;DHT22;17164;48.590;11.410;2022-09-02T07:43:44;15.90;99.90
30371;DHT22;17164;48.590;11.410;2022-09-02T07:46:10;16.00;99.90
30371;DHT22;17164;48.590;11.410;2022-09-02T07:48:36;16.20;99.90
30371;DHT22;17164;48.590;11.410;2022-09-02T07:51:02;16.30;99.90
30371;DHT22;17164;48.590;11.410;2022-09-02T07:53:28;16.40;99.90
30371;DHT22;17164;48.590;11.410;2022-09-02T07:55:54;16.40;99.90
30371;DHT22;17164;48.590;11.410;2022-09-02T07:58:21;16.50;99.90
30371;DHT22;17164;48.590;11.410;2022-09-02T08:00:47;16.60;99.90
30371;DHT22;17164;48.590;11.410;2022-09-02T08:03:14;16.70;99.90
30371;DHT22;17164;48.590;11.410;2022-09-02T08:05:40;16.80;99.90
30371;DHT22;17164;48.590;11.410;2022-09-02T08:08:07;16.90;99.90
30371;DHT22;17164;48.590;11.410;2022-09-02T08:10:34;17.00;99.90
30371;DHT22;17164;48.590;11.410;2022-09-02T08:13:00;17.10;99.90
30371;DHT22;17164;48.590;11.410;2022-09-02T08:15:28;17.20;99.90
30371;DHT22;17164;48.590;11.410;2022-09-02T08:17:55;17.30;99.90
30371;DHT22;17164;48.590;11.410;2022-09-02T08:20:21;17.40;99.90
30371;DHT22;17164;48.590;11.410;2022-09-02T08:22:47;17.50;99.90
30371;DHT22;17164;48.590;11.410;2022-09-02T08:25:14;17.60;99.90
30371;DHT22;17164;48.590;11.410;2022-09-02T08:27:41;17.70;99.90
30371;DHT22;17164;48.590;11.410;2022-09-02T08:30:08;17.80;99.90
30371;DHT22;17164;48.590;11.410;2022-09-02T08:32:35;17.90;99.90
30371;DHT22;17164;48.590;11.410;2022-09-02T08:35:01;18.00;99.90
30371;DHT22;17164;48.590;11.410;2022-09-02T08:37:29;18.10;99.90
30371;DHT22;17164;48.590;11.410;2022-09-02T08:39:58;18.20;99.90
30371;DHT22;17164;48.590;11.410;2022-09-02T08:42:34;18.30;99.90
30371;DHT22;17164;48.590;11.410;2022-09-02T08:45:11;18.40;99.90
30371;DHT22;17164;48.590;11.410;2022-09-02T08:47:40;18.50;99.90
30371;DHT22;17164;48.590;11.410;2022-09-02T08:50:16;18.50;99.90
30371;DHT22;17164;48.590;11.410;2022-09-02T08:55:43;18.70;99.90
30371;DHT22;17164;48.590;11.410;2022-09-02T08:58:13;18.90;99.90
30371;DHT22;17164;48.590;11.410;2022-09-02T09:00:42;18.90;99.90
30371;DHT22;17164;48.590;11.410;2022-09-02T09:08:49;19.20;96.20
30371;DHT22;17164;48.590;11.410;2022-09-02T09:11:28;19.30;96.20
30371;DHT22;17164;48.590;11.410;2022-09-02T09:16:55;19.40;94.60
30371;DHT22;17164;48.590;11.410;2022-09-02T09:21:57;19.60;95.70
30371;DHT22;17164;48.590;11.410;2022-09-02T09:27:03;19.90;95.50
30371;DHT22;17164;48.590;11.410;2022-09-02T09:29:32;19.90;93.90
30371;DHT22;17164;48.590;11.410;2022-09-02T09:31:59;20.00;92.70
30371;DHT22;17164;48.590;11.410;2022-09-02T09:39:59;20.20;91.00
30371;DHT22;17164;48.590;11.410;2022-09-02T09:42:35;20.20;90.00
30371;DHT22;17164;48.590;11.410;2022-09-02T09:50:45;20.50;90.80
30371;DHT22;17164;48.590;11.410;2022-09-02T09:53:16;20.60;88.90
30371;DHT22;17164;48.590;11.410;2022-09-02T09:58:45;20.80;90.10
30371;DHT22;17164;48.590;11.410;2022-09-02T10:01:23;20.90;88.80
30371;DHT22;17164;48.590;11.410;2022-09-02T10:04:10;20.90;82.50
30371;DHT22;17164;48.590;11.410;2022-09-02T10:06:43;21.00;83.50
30371;DHT22;17164;48.590;11.410;2022-09-02T10:12:04;21.00;84.60
30371;DHT22;17164;48.590;11.410;2022-09-02T10:14:43;21.00;82.80
30371;DHT22;17164;48.590;11.410;2022-09-02T10:17:31;21.10;82.50
30371;DHT22;17164;48.590;11.410;2022-09-02T10:20:21;21.20;82.00
30371;DHT22;17164;48.590;11.410;2022-09-02T10:28:42;21.40;78.20
30371;DHT22;17164;48.590;11.410;2022-09-02T10:37:10;21.60;73.50
30371;DHT22;17164;48.590;11.410;2022-09-02T10:42:47;21.70;76.60
30371;DHT22;17164;48.590;11.410;2022-09-02T10:45:22;21.70;76.10
30371;DHT22;17164;48.590;11.410;2022-09-02T10:56:28;22.10;74.70
30371;DHT22;17164;48.590;11.410;2022-09-02T10:59:05;22.10;74.80
30371;DHT22;17164;48.590;11.410;2022-09-02T11:01:41;22.10;77.00
30371;DHT22;17164;48.590;11.410;2022-09-02T11:04:46;22.20;72.90
30371;DHT22;17164;48.590;11.410;2022-09-02T11:07:18;22.20;74.40
30371;DHT22;17164;48.590;11.410;2022-09-02T11:09:51;22.30;75.00
30371;DHT22;17164;48.590;11.410;2022-09-02T11:13:20;22.40;76.60
30371;DHT22;17164;48.590;11.410;2022-09-02T11:20:40;22.70;72.40
30371;DHT22;17164;48.590;11.410;2022-09-02T11:23:40;22.80;73.70
30371;DHT22;17164;48.590;11.410;2022-09-02T11:26:30;22.80;69.80
30371;DHT22;17164;48.590;11.410;2022-09-02T11:29:16;22.90;72.80
30371;DHT22;17164;48.590;11.410;2022-09-02T11:37:04;23.00;69.20
30371;DHT22;17164;48.590;11.410;2022-09-02T11:39:44;23.00;69.80
30371;DHT22;17164;48.590;11.410;2022-09-02T11:48:21;23.10;68.50
30371;DHT22;17164;48.590;11.410;2022-09-02T11:53:45;23.20;69.00
30371;DHT22;17164;48.590;11.410;2022-09-02T11:56:20;23.20;66.50
30371;DHT22;17164;48.590;11.410;2022-09-02T11:58:50;23.20;67.90
30371;DHT22;17164;48.590;11.410;2022-09-02T12:04:00;23.20;63.40
30371;DHT22;17164;48.590;11.410;2022-09-02T12:06:27;23.20;68.50
30371;DHT22;17164;48.590;11.410;2022-09-02T12:14:08;23.20;66.70
30371;DHT22;17164;48.590;11.410;2022-09-02T12:16:43;23.20;69.10
30371;DHT22;17164;48.590;11.410;2022-09-02T12:24:49;23.30;64.90
30371;DHT22;17164;48.590;11.410;2022-09-02T12:27:26;23.30;67.00
30371;DHT22;17164;48.590;11.410;2022-09-02T12:29:53;23.40;67.10
30371;DHT22;17164;48.590;11.410;2022-09-02T12:35:49;23.50;65.90
30371;DHT22;17164;48.590;11.410;2022-09-02T12:38:30;23.50;62.80
30371;DHT22;17164;48.590;11.410;2022-09-02T12:46:20;23.70;65.10
30371;DHT22;17164;48.590;11.410;2022-09-02T12:48:57;23.60;66.80
30371;DHT22;17164;48.590;11.410;2022-09-02T12:51:50;23.70;68.10
30371;DHT22;17164;48.590;11.410;2022-09-02T12:54:17;23.80;67.30
30371;DHT22;17164;48.590;11.410;2022-09-02T12:56:48;23.80;65.50
30371;DHT22;17164;48.590;11.410;2022-09-02T12:59:29;23.80;65.20
30371;DHT22;17164;48.590;11.410;2022-09-02T13:05:20;23.70;66.30
30371;DHT22;17164;48.590;11.410;2022-09-02T13:08:21;23.70;65.40
30371;DHT22;17164;48.590;11.410;2022-09-02T13:13:41;23.80;65.20
30371;DHT22;17164;48.590;11.410;2022-09-02T13:16:13;23.90;65.50
30371;DHT22;17164;48.590;11.410;2022-09-02T13:21:39;24.00;66.10
30371;DHT22;17164;48.590;11.410;2022-09-02T13:32:45;24.00;63.80
30371;DHT22;17164;48.590;11.410;2022-09-02T13:35:24;24.00;62.30
30371;DHT22;17164;48.590;11.410;2022-09-02T13:37:57;24.10;64.40
30371;DHT22;17164;48.590;11.410;2022-09-02T13:40:31;24.10;62.60
30371;DHT22;17164;48.590;11.410;2022-09-02T13:43:03;24.00;60.70
30371;DHT22;17164;48.590;11.410;2022-09-02T13:45:32;24.00;60.70
30371;DHT22;17164;48.590;11.410;2022-09-02T13:48:17;24.10;62.80
30371;DHT22;17164;48.590;11.410;2022-09-02T13:50:47;24.20;61.40
30371;DHT22;17164;48.590;11.410;2022-09-02T13:55:55;24.10;60.90
30371;DHT22;17164;48.590;11.410;2022-09-02T14:01:19;24.10;61.80
30371;DHT22;17164;48.590;11.410;2022-09-02T14:03:47;24.20;59.10
30371;DHT22;17164;48.590;11.410;2022-09-02T14:06:15;24.40;58.70
30371;DHT22;17164;48.590;11.410;2022-09-02T14:08:43;24.50;60.90
30371;DHT22;17164;48.590;11.410;2022-09-02T14:11:16;24.50;60.20
30371;DHT22;17164;48.590;11.410;2022-09-02T14:13:47;24.50;60.80
30371;DHT22;17164;48.590;11.410;2022-09-02T14:16:34;24.50;59.60
30371;DHT22;17164;48.590;11.410;2022-09-02T14:19:05;24.60;60.10
30371;DHT22;17164;48.590;11.410;2022-09-02T14:21:31;24.60;60.20
30371;DHT22;17164;48.590;11.410;2022-09-02T14:23:57;24.50;58.90
30371;DHT22;17164;48.590;11.410;2022-09-02T14:26:32;24.50;59.80
30371;DHT22;17164;48.590;11.410;2022-09-02T14:28:59;24.50;60.40
30371;DHT22;17164;48.590;11.410;2022-09-02T14:31:27;24.60;60.30
30371;DHT22;17164;48.590;11.410;2022-09-02T14:33:56;24.70;59.20
30371;DHT22;17164;48.590;11.410;2022-09-02T14:38:55;24.90;59.60
30371;DHT22;17164;48.590;11.410;2022-09-02T14:41:26;25.10;59.00
30371;DHT22;17164;48.590;11.410;2022-09-02T14:43:53;25.20;57.90
30371;DHT22;17164;48.590;11.410;2022-09-02T14:46:43;25.30;58.50
30371;DHT22;17164;48.590;11.410;2022-09-02T14:49:23;25.50;58.40
30371;DHT22;17164;48.590;11.410;2022-09-02T14:51:52;25.80;58.40
30371;DHT22;17164;48.590;11.410;2022-09-02T14:54:40;26.00;56.60
30371;DHT22;17164;48.590;11.410;2022-09-02T14:57:26;26.20;56.60
30371;DHT22;17164;48.590;11.410;2022-09-02T14:59:53;26.40;56.10
30371;DHT22;17164;48.590;11.410;2022-09-02T15:02:40;26.50;55.00
30371;DHT22;17164;48.590;11.410;2022-09-02T15:05:09;26.70;54.00
30371;DHT22;17164;48.590;11.410;2022-09-02T15:07:39;26.90;54.40
30371;DHT22;17164;48.590;11.410;2022-09-02T15:10:04;27.10;54.00
30371;DHT22;17164;48.590;11.410;2022-09-02T15:12:36;27.30;53.30
30371;DHT22;17164;48.590;11.410;2022-09-02T15:15:03;27.40;54.40
30371;DHT22;17164;48.590;11.410;2022-09-02T15:17:28;27.50;53.00
30371;DHT22;17164;48.590;11.410;2022-09-02T15:19:55;27.60;52.90
30371;DHT22;17164;48.590;11.410;2022-09-02T15:22:21;27.70;50.20
30371;DHT22;17164;48.590;11.410;2022-09-02T15:24:46;27.80;50.50
30371;DHT22;17164;48.590;11.410;2022-09-02T15:27:14;28.00;50.50
30371;DHT22;17164;48.590;11.410;2022-09-02T15:29:40;28.10;51.40
30371;DHT22;17164;48.590;11.410;2022-09-02T15:32:06;28.10;50.80
30371;DHT22;17164;48.590;11.410;2022-09-02T15:34:32;28.20;50.60
30371;DHT22;17164;48.590;11.410;2022-09-02T15:37:01;28.10;50.20
30371;DHT22;17164;48.590;11.410;2022-09-02T15:39:27;28.00;50.10
30371;DHT22;17164;48.590;11.410;2022-09-02T15:41:53;27.80;51.30
30371;DHT22;17164;48.590;11.410;2022-09-02T15:44:23;27.60;51.60
30371;DHT22;17164;48.590;11.410;2022-09-02T15:46:52;27.50;50.70
30371;DHT22;17164;48.590;11.410;2022-09-02T15:49:19;27.30;48.90
30371;DHT22;17164;48.590;11.410;2022-09-02T15:51:46;27.10;50.10
30371;DHT22;17164;48.590;11.410;2022-09-02T15:54:14;26.90;49.10
30371;DHT22;17164;48.590;11.410;2022-09-02T15:56:42;26.70;50.00
30371;DHT22;17164;48.590;11.410;2022-09-02T15:59:10;26.70;50.40
30371;DHT22;17164;48.590;11.410;2022-09-02T16:01:39;26.60;50.80
30371;DHT22;17164;48.590;11.410;2022-09-02T16:04:05;26.70;51.20
30371;DHT22;17164;48.590;11.410;2022-09-02T16:06:33;26.70;51.30
30371;DHT22;17164;48.590;11.410;2022-09-02T16:09:01;26.90;50.90
30371;DHT22;17164;48.590;11.410;2022-09-02T16:11:26;27.40;50.60
30371;DHT22;17164;48.590;11.410;2022-09-02T16:13:53;27.80;49.50
30371;DHT22;17164;48.590;11.410;2022-09-02T16:16:18;28.30;48.50
30371;DHT22;17164;48.590;11.410;2022-09-02T16:18:49;28.80;46.70
30371;DHT22;17164;48.590;11.410;2022-09-02T16:21:16;29.20;48.00
30371;DHT22;17164;48.590;11.410;2022-09-02T16:23:42;29.90;47.70
30371;DHT22;17164;48.590;11.410;2022-09-02T16:28:47;31.10;46.20
30371;DHT22;17164;48.590;11.410;2022-09-02T16:31:15;31.70;45.00
30371;DHT22;17164;48.590;11.410;2022-09-02T16:33:50;32.40;44.50
30371;DHT22;17164;48.590;11.410;2022-09-02T16:36:17;32.80;43.20
30371;DHT22;17164;48.590;11.410;2022-09-02T16:38:42;32.20;42.70
30371;DHT22;17164;48.590;11.410;2022-09-02T16:41:24;31.20;43.40
30371;DHT22;17164;48.590;11.410;2022-09-02T16:43:51;30.00;44.60
30371;DHT22;17164;48.590;11.410;2022-09-02T16:46:17;28.80;46.10
30371;DHT22;17164;48.590;11.410;2022-09-02T16:48:43;27.80;48.10
30371;DHT22;17164;48.590;11.410;2022-09-02T16:51:08;26.90;49.10
30371;DHT22;17164;48.590;11.410;2022-09-02T16:53:34;26.10;50.00
30371;DHT22;17164;48.590;11.410;2022-09-02T16:56:02;25.40;50.60
30371;DHT22;17164;48.590;11.410;2022-09-02T16:58:29;24.90;51.70
30371;DHT22;17164;48.590;11.410;2022-09-02T17:00:55;24.40;52.60
30371;DHT22;17164;48.590;11.410;2022-09-02T17:03:21;24.00;53.00
30371;DHT22;17164;48.590;11.410;2022-09-02T17:05:46;23.70;54.00
30371;DHT22;17164;48.590;11.410;2022-09-02T17:08:14;23.40;54.90
30371;DHT22;17164;48.590;11.410;2022-09-02T17:10:41;23.10;55.70
30371;DHT22;17164;48.590;11.410;2022-09-02T17:13:06;22.90;56.50
30371;DHT22;17164;48.590;11.410;2022-09-02T17:15:32;22.70;57.80
30371;DHT22;17164;48.590;11.410;2022-09-02T17:17:58;22.50;57.70
30371;DHT22;17164;48.590;11.410;2022-09-02T17:20:23;22.30;58.40
30371;DHT22;17164;48.590;11.410;2022-09-02T17:22:49;22.10;59.20
30371;DHT22;17164;48.590;11.410;2022-09-02T17:25:15;21.90;59.70
30371;DHT22;17164;48.590;11.410;2022-09-02T17:27:41;21.70;59.90
30371;DHT22;17164;48.590;11.410;2022-09-02T17:30:08;21.60;60.10
30371;DHT22;17164;48.590;11.410;2022-09-02T17:32:36;21.40;60.80
30371;DHT22;17164;48.590;11.410;2022-09-02T17:35:02;21.30;62.00
30371;DHT22;17164;48.590;11.410;2022-09-02T17:37:27;21.20;61.90